sensor_id;sensor_type;location;lat;lon;timestamp;P1;durP1;ratioP1;P2;durP2;ratioP2
50759;SDS011;36733;48.442;-4.470;2022-07-29T00:01:29;4.72;;;1.50;;
50759;SDS011;36733;48.442;-4.470;2022-07-29T00:03:54;6.00;;;1.80;;
50759;SDS011;36733;48.442;-4.470;2022-07-29T00:06:19;4.87;;;1.97;;
50759;SDS011;36733;48.442;-4.470;2022-07-29T00:08:46;5.25;;;1.60;;
50759;SDS011;36733;48.442;-4.470;2022-07-29T00:11:11;4.22;;;1.77;;
50759;SDS011;36733;48.442;-4.470;2022-07-29T00:13:37;6.90;;;1.40;;
50759;SDS011;36733;48.442;-4.470;2022-07-29T00:16:02;6.07;;;1.90;;
50759;SDS011;36733;48.442;-4.470;2022-07-29T00:18:28;4.38;;;1.70;;
50759;SDS011;36733;48.442;-4.470;2022-07-29T00:20:53;4.65;;;1.70;;
50759;SDS011;36733;48.442;-4.470;2022-07-29T00:23:19;3.30;;;1.73;;
50759;SDS011;36733;48.442;-4.470;2022-07-29T00:25:44;3.90;;;1.60;;
50759;SDS011;36733;48.442;-4.470;2022-07-29T00:28:10;4.07;;;1.77;;
50759;SDS011;36733;48.442;-4.470;2022-07-29T00:30:35;3.38;;;1.63;;
50759;SDS011;36733;48.442;-4.470;2022-07-29T00:33:01;7.90;;;1.50;;
50759;SDS011;36733;48.442;-4.470;2022-07-29T00:35:26;3.88;;;1.73;;
50759;SDS011;36733;48.442;-4.470;2022-07-29T00:38:21;3.25;;;1.67;;
50759;SDS011;36733;48.442;-4.470;2022-07-29T00:40:47;5.55;;;1.83;;
50759;SDS011;36733;48.442;-4.470;2022-07-29T00:43:13;7.13;;;1.85;;
50759;SDS011;36733;48.442;-4.470;2022-07-29T00:45:39;4.68;;;1.45;;
50759;SDS011;36733;48.442;-4.470;2022-07-29T00:48:06;5.28;;;1.98;;
50759;SDS011;36733;48.442;-4.470;2022-07-29T00:50:32;7.90;;;2.00;;
50759;SDS011;36733;48.442;-4.470;2022-07-29T00:52:57;5.07;;;1.88;;
50759;SDS011;36733;48.442;-4.470;2022-07-29T00:55:23;3.03;;;1.75;;
50759;SDS011;36733;48.442;-4.470;2022-07-29T00:57:48;5.70;;;2.17;;
50759;SDS011;36733;48.442;-4.470;2022-07-29T01:00:16;3.08;;;1.65;;
50759;SDS011;36733;48.442;-4.470;2022-07-29T01:02:43;5.57;;;1.85;;
50759;SDS011;36733;48.442;-4.470;2022-07-29T01:05:09;4.65;;;1.92;;
50759;SDS011;36733;48.442;-4.470;2022-07-29T01:07:36;5.78;;;1.98;;
50759;SDS011;36733;48.442;-4.470;2022-07-29T01:10:03;5.13;;;1.55;;
50759;SDS011;36733;48.442;-4.470;2022-07-29T01:12:30;4.68;;;1.80;;
50759;SDS011;36733;48.442;-4.470;2022-07-29T01:14:59;2.88;;;1.70;;
50759;SDS011;36733;48.442;-4.470;2022-07-29T01:26:42;5.40;;;1.92;;
50759;SDS011;36733;48.442;-4.470;2022-07-29T01:29:12;2.47;;;1.52;;
50759;SDS011;36733;48.442;-4.470;2022-07-29T01:34:15;5.85;;;2.20;;
50759;SDS011;36733;48.442;-4.470;2022-07-29T01:36:48;6.45;;;1.73;;
50759;SDS011;36733;48.442;-4.470;2022-07-29T01:39:36;4.43;;;1.80;;
50759;SDS011;36733;48.442;-4.470;2022-07-29T01:42:10;9.80;;;1.80;;
50759;SDS011;36733;48.442;-4.470;2022-07-29T01:44:41;3.70;;;1.75;;
50759;SDS011;36733;48.442;-4.470;2022-07-29T01:47:14;5.28;;;1.83;;
50759;SDS011;36733;48.442;-4.470;2022-07-29T01:49:43;3.17;;;1.30;;
50759;SDS011;36733;48.442;-4.470;2022-07-29T01:52:56;7.38;;;1.95;;
50759;SDS011;36733;48.442;-4.470;2022-07-29T01:55:10;6.88;;;1.73;;
50759;SDS011;36733;48.442;-4.470;2022-07-29T01:57:38;4.93;;;1.67;;
50759;SDS011;36733;48.442;-4.470;2022-07-29T02:00:05;4.97;;;1.75;;
50759;SDS011;36733;48.442;-4.470;2022-07-29T02:02:32;5.72;;;1.80;;
50759;SDS011;36733;48.442;-4.470;2022-07-29T02:04:58;4.15;;;1.88;;
50759;SDS011;36733;48.442;-4.470;2022-07-29T02:07:25;3.75;;;2.00;;
50759;SDS011;36733;48.442;-4.470;2022-07-29T02:09:53;6.05;;;1.80;;
50759;SDS011;36733;48.442;-4.470;2022-07-29T02:12:19;3.20;;;1.90;;
50759;SDS011;36733;48.442;-4.470;2022-07-29T02:17:17;4.90;;;2.10;;
50759;SDS011;36733;48.442;-4.470;2022-07-29T02:19:50;2.35;;;1.70;;
50759;SDS011;36733;48.442;-4.470;2022-07-29T02:22:17;3.40;;;1.70;;
50759;SDS011;36733;48.442;-4.470;2022-07-29T02:24:43;5.32;;;1.80;;
50759;SDS011;36733;48.442;-4.470;2022-07-29T02:27:09;4.32;;;1.98;;
50759;SDS011;36733;48.442;-4.470;2022-07-29T02:29:35;4.07;;;2.00;;
50759;SDS011;36733;48.442;-4.470;2022-07-29T02:32:01;3.88;;;2.03;;
50759;SDS011;36733;48.442;-4.470;2022-07-29T02:34:27;3.58;;;1.95;;
50759;SDS011;36733;48.442;-4.470;2022-07-29T02:36:54;3.05;;;1.70;;
50759;SDS011;36733;48.442;-4.470;2022-07-29T02:39:20;3.15;;;1.90;;
50759;SDS011;36733;48.442;-4.470;2022-07-29T02:41:51;4.68;;;1.80;;
50759;SDS011;36733;48.442;-4.470;2022-07-29T02:44:21;3.50;;;1.95;;
50759;SDS011;36733;48.442;-4.470;2022-07-29T02:46:51;5.18;;;2.22;;
50759;SDS011;36733;48.442;-4.470;2022-07-29T02:49:31;3.33;;;2.35;;
50759;SDS011;36733;48.442;-4.470;2022-07-29T02:51:59;5.43;;;1.88;;
50759;SDS011;36733;48.442;-4.470;2022-07-29T02:54:44;5.40;;;2.25;;
50759;SDS011;36733;48.442;-4.470;2022-07-29T03:00:08;4.13;;;2.13;;
50759;SDS011;36733;48.442;-4.470;2022-07-29T03:02:39;3.03;;;1.90;;
50759;SDS011;36733;48.442;-4.470;2022-07-29T03:05:15;3.80;;;1.90;;
50759;SDS011;36733;48.442;-4.470;2022-07-29T03:10:26;3.30;;;2.00;;
50759;SDS011;36733;48.442;-4.470;2022-07-29T03:12:52;5.22;;;1.83;;
50759;SDS011;36733;48.442;-4.470;2022-07-29T03:15:18;4.40;;;2.03;;
50759;SDS011;36733;48.442;-4.470;2022-07-29T03:17:43;4.03;;;2.00;;
50759;SDS011;36733;48.442;-4.470;2022-07-29T03:20:09;5.35;;;2.33;;
50759;SDS011;36733;48.442;-4.470;2022-07-29T03:25:08;3.00;;;1.90;;
50759;SDS011;36733;48.442;-4.470;2022-07-29T03:27:37;2.58;;;1.80;;
50759;SDS011;36733;48.442;-4.470;2022-07-29T03:30:03;4.10;;;1.90;;
50759;SDS011;36733;48.442;-4.470;2022-07-29T03:32:29;3.72;;;1.90;;
50759;SDS011;36733;48.442;-4.470;2022-07-29T03:34:54;5.07;;;2.03;;
50759;SDS011;36733;48.442;-4.470;2022-07-29T03:37:20;4.47;;;2.27;;
50759;SDS011;36733;48.442;-4.470;2022-07-29T03:39:45;4.17;;;2.13;;
50759;SDS011;36733;48.442;-4.470;2022-07-29T03:42:11;2.83;;;2.03;;
50759;SDS011;36733;48.442;-4.470;2022-07-29T03:44:39;3.03;;;2.10;;
50759;SDS011;36733;48.442;-4.470;2022-07-29T03:47:06;4.80;;;2.08;;
50759;SDS011;36733;48.442;-4.470;2022-07-29T03:49:33;4.32;;;2.05;;
50759;SDS011;36733;48.442;-4.470;2022-07-29T03:52:01;4.18;;;2.08;;
50759;SDS011;36733;48.442;-4.470;2022-07-29T03:54:26;5.90;;;2.37;;
50759;SDS011;36733;48.442;-4.470;2022-07-29T03:56:52;9.88;;;2.65;;
50759;SDS011;36733;48.442;-4.470;2022-07-29T03:59:18;5.80;;;2.60;;
50759;SDS011;36733;48.442;-4.470;2022-07-29T04:01:45;6.80;;;2.80;;
50759;SDS011;36733;48.442;-4.470;2022-07-29T04:04:10;6.13;;;3.00;;
50759;SDS011;36733;48.442;-4.470;2022-07-29T04:06:37;4.95;;;2.95;;
50759;SDS011;36733;48.442;-4.470;2022-07-29T04:09:06;4.45;;;3.00;;
50759;SDS011;36733;48.442;-4.470;2022-07-29T04:11:33;7.45;;;3.75;;
50759;SDS011;36733;48.442;-4.470;2022-07-29T04:13:58;10.23;;;4.05;;
50759;SDS011;36733;48.442;-4.470;2022-07-29T04:16:24;10.47;;;3.40;;
50759;SDS011;36733;48.442;-4.470;2022-07-29T04:18:49;5.63;;;3.40;;
50759;SDS011;36733;48.442;-4.470;2022-07-29T04:21:14;12.03;;;3.67;;
50759;SDS011;36733;48.442;-4.470;2022-07-29T04:23:40;6.47;;;3.47;;
50759;SDS011;36733;48.442;-4.470;2022-07-29T04:26:06;7.97;;;3.60;;
50759;SDS011;36733;48.442;-4.470;2022-07-29T04:28:34;5.65;;;3.20;;
50759;SDS011;36733;48.442;-4.470;2022-07-29T04:31:00;8.35;;;4.00;;
50759;SDS011;36733;48.442;-4.470;2022-07-29T04:33:25;7.23;;;4.17;;
50759;SDS011;36733;48.442;-4.470;2022-07-29T04:35:51;7.47;;;4.70;;
50759;SDS011;36733;48.442;-4.470;2022-07-29T04:38:16;6.88;;;3.97;;
50759;SDS011;36733;48.442;-4.470;2022-07-29T04:40:42;8.50;;;3.60;;
50759;SDS011;36733;48.442;-4.470;2022-07-29T04:43:07;13.32;;;3.97;;
50759;SDS011;36733;48.442;-4.470;2022-07-29T04:45:32;7.73;;;3.90;;
50759;SDS011;36733;48.442;-4.470;2022-07-29T04:47:58;9.93;;;3.93;;
50759;SDS011;36733;48.442;-4.470;2022-07-29T04:50:23;7.60;;;3.50;;
50759;SDS011;36733;48.442;-4.470;2022-07-29T04:52:49;7.25;;;3.33;;
50759;SDS011;36733;48.442;-4.470;2022-07-29T04:55:14;6.05;;;3.70;;
50759;SDS011;36733;48.442;-4.470;2022-07-29T04:57:40;7.30;;;3.30;;
50759;SDS011;36733;48.442;-4.470;2022-07-29T05:00:05;8.03;;;3.93;;
50759;SDS011;36733;48.442;-4.470;2022-07-29T05:02:31;10.10;;;3.97;;
50759;SDS011;36733;48.442;-4.470;2022-07-29T05:04:57;6.10;;;3.40;;
50759;SDS011;36733;48.442;-4.470;2022-07-29T05:07:22;10.73;;;3.27;;
50759;SDS011;36733;48.442;-4.470;2022-07-29T05:09:47;12.23;;;3.67;;
50759;SDS011;36733;48.442;-4.470;2022-07-29T05:12:13;9.30;;;3.33;;
50759;SDS011;36733;48.442;-4.470;2022-07-29T05:14:38;5.50;;;3.10;;
50759;SDS011;36733;48.442;-4.470;2022-07-29T05:17:04;6.47;;;3.05;;
50759;SDS011;36733;48.442;-4.470;2022-07-29T05:19:29;4.85;;;2.85;;
50759;SDS011;36733;48.442;-4.470;2022-07-29T05:21:55;8.20;;;3.27;;
50759;SDS011;36733;48.442;-4.470;2022-07-29T05:24:20;6.60;;;2.60;;
50759;SDS011;36733;48.442;-4.470;2022-07-29T05:26:45;6.27;;;2.73;;
50759;SDS011;36733;48.442;-4.470;2022-07-29T05:29:11;9.52;;;3.15;;
50759;SDS011;36733;48.442;-4.470;2022-07-29T05:31:36;6.17;;;2.50;;
50759;SDS011;36733;48.442;-4.470;2022-07-29T05:34:02;11.80;;;2.73;;
50759;SDS011;36733;48.442;-4.470;2022-07-29T05:36:27;4.72;;;2.40;;
50759;SDS011;36733;48.442;-4.470;2022-07-29T05:38:52;5.67;;;2.90;;
50759;SDS011;36733;48.442;-4.470;2022-07-29T05:41:18;6.97;;;2.53;;
50759;SDS011;36733;48.442;-4.470;2022-07-29T05:43:44;8.40;;;3.03;;
50759;SDS011;36733;48.442;-4.470;2022-07-29T05:46:09;7.27;;;2.90;;
50759;SDS011;36733;48.442;-4.470;2022-07-29T05:48:35;5.50;;;3.00;;
50759;SDS011;36733;48.442;-4.470;2022-07-29T05:51:00;4.20;;;2.47;;
50759;SDS011;36733;48.442;-4.470;2022-07-29T05:53:26;6.25;;;2.95;;
50759;SDS011;36733;48.442;-4.470;2022-07-29T05:55:51;5.83;;;2.83;;
50759;SDS011;36733;48.442;-4.470;2022-07-29T05:58:17;6.63;;;3.03;;
50759;SDS011;36733;48.442;-4.470;2022-07-29T06:00:43;7.15;;;3.10;;
50759;SDS011;36733;48.442;-4.470;2022-07-29T06:03:08;7.15;;;3.17;;
50759;SDS011;36733;48.442;-4.470;2022-07-29T06:05:33;8.70;;;2.70;;
50759;SDS011;36733;48.442;-4.470;2022-07-29T06:07:59;5.17;;;2.83;;
50759;SDS011;36733;48.442;-4.470;2022-07-29T06:10:24;4.53;;;2.58;;
50759;SDS011;36733;48.442;-4.470;2022-07-29T06:12:50;7.45;;;3.08;;
50759;SDS011;36733;48.442;-4.470;2022-07-29T06:15:15;5.90;;;2.90;;
50759;SDS011;36733;48.442;-4.470;2022-07-29T06:17:41;6.13;;;2.70;;
50759;SDS011;36733;48.442;-4.470;2022-07-29T06:20:06;5.63;;;2.40;;
50759;SDS011;36733;48.442;-4.470;2022-07-29T06:22:32;5.55;;;2.80;;
50759;SDS011;36733;48.442;-4.470;2022-07-29T06:24:57;9.03;;;2.87;;
50759;SDS011;36733;48.442;-4.470;2022-07-29T06:27:23;5.37;;;2.60;;
50759;SDS011;36733;48.442;-4.470;2022-07-29T06:29:48;6.47;;;2.50;;
50759;SDS011;36733;48.442;-4.470;2022-07-29T06:32:13;4.57;;;2.77;;
50759;SDS011;36733;48.442;-4.470;2022-07-29T06:34:39;6.83;;;2.63;;
50759;SDS011;36733;48.442;-4.470;2022-07-29T06:37:07;8.67;;;2.97;;
50759;SDS011;36733;48.442;-4.470;2022-07-29T06:39:34;6.07;;;2.70;;
50759;SDS011;36733;48.442;-4.470;2022-07-29T06:42:01;5.78;;;3.00;;
50759;SDS011;36733;48.442;-4.470;2022-07-29T06:44:26;8.90;;;2.90;;
50759;SDS011;36733;48.442;-4.470;2022-07-29T06:46:51;6.90;;;2.97;;
50759;SDS011;36733;48.442;-4.470;2022-07-29T06:49:18;10.38;;;2.92;;
50759;SDS011;36733;48.442;-4.470;2022-07-29T06:51:43;13.73;;;3.38;;
50759;SDS011;36733;48.442;-4.470;2022-07-29T06:54:09;8.00;;;2.85;;
50759;SDS011;36733;48.442;-4.470;2022-07-29T06:56:34;16.05;;;3.22;;
50759;SDS011;36733;48.442;-4.470;2022-07-29T06:59:03;6.93;;;3.40;;
50759;SDS011;36733;48.442;-4.470;2022-07-29T07:01:29;9.45;;;3.28;;
50759;SDS011;36733;48.442;-4.470;2022-07-29T07:03:55;7.93;;;2.88;;
50759;SDS011;36733;48.442;-4.470;2022-07-29T07:06:21;7.10;;;2.88;;
50759;SDS011;36733;48.442;-4.470;2022-07-29T07:08:46;7.70;;;3.00;;
50759;SDS011;36733;48.442;-4.470;2022-07-29T07:11:11;9.00;;;3.00;;
50759;SDS011;36733;48.442;-4.470;2022-07-29T07:13:37;9.00;;;2.77;;
50759;SDS011;36733;48.442;-4.470;2022-07-29T07:16:03;5.93;;;2.73;;
50759;SDS011;36733;48.442;-4.470;2022-07-29T07:18:29;8.80;;;2.58;;
50759;SDS011;36733;48.442;-4.470;2022-07-29T07:20:55;9.90;;;2.60;;
50759;SDS011;36733;48.442;-4.470;2022-07-29T07:23:21;6.35;;;2.67;;
50759;SDS011;36733;48.442;-4.470;2022-07-29T07:25:46;5.70;;;2.53;;
50759;SDS011;36733;48.442;-4.470;2022-07-29T07:28:12;6.43;;;2.47;;
50759;SDS011;36733;48.442;-4.470;2022-07-29T07:30:37;8.90;;;2.40;;
50759;SDS011;36733;48.442;-4.470;2022-07-29T07:33:03;7.40;;;3.30;;
50759;SDS011;36733;48.442;-4.470;2022-07-29T07:35:28;5.27;;;2.73;;
50759;SDS011;36733;48.442;-4.470;2022-07-29T07:37:54;6.93;;;2.77;;
50759;SDS011;36733;48.442;-4.470;2022-07-29T07:40:20;9.70;;;2.72;;
50759;SDS011;36733;48.442;-4.470;2022-07-29T07:42:46;8.35;;;3.10;;
50759;SDS011;36733;48.442;-4.470;2022-07-29T07:45:11;8.43;;;2.47;;
50759;SDS011;36733;48.442;-4.470;2022-07-29T07:50:07;10.40;;;2.75;;
50759;SDS011;36733;48.442;-4.470;2022-07-29T07:52:37;8.40;;;2.63;;
50759;SDS011;36733;48.442;-4.470;2022-07-29T07:55:11;10.45;;;2.50;;
50759;SDS011;36733;48.442;-4.470;2022-07-29T07:57:36;4.40;;;2.20;;
50759;SDS011;36733;48.442;-4.470;2022-07-29T08:00:02;9.47;;;2.83;;
50759;SDS011;36733;48.442;-4.470;2022-07-29T08:02:28;8.52;;;2.90;;
50759;SDS011;36733;48.442;-4.470;2022-07-29T08:04:54;8.77;;;2.53;;
50759;SDS011;36733;48.442;-4.470;2022-07-29T08:07:19;9.93;;;2.67;;
50759;SDS011;36733;48.442;-4.470;2022-07-29T08:09:45;8.05;;;2.33;;
50759;SDS011;36733;48.442;-4.470;2022-07-29T08:12:10;12.43;;;2.50;;
50759;SDS011;36733;48.442;-4.470;2022-07-29T08:14:36;8.40;;;2.50;;
50759;SDS011;36733;48.442;-4.470;2022-07-29T08:17:01;8.50;;;3.30;;
50759;SDS011;36733;48.442;-4.470;2022-07-29T08:19:26;9.43;;;2.60;;
50759;SDS011;36733;48.442;-4.470;2022-07-29T08:21:52;9.63;;;2.25;;
50759;SDS011;36733;48.442;-4.470;2022-07-29T08:24:18;9.88;;;2.38;;
50759;SDS011;36733;48.442;-4.470;2022-07-29T08:27:02;6.90;;;1.70;;
50759;SDS011;36733;48.442;-4.470;2022-07-29T08:29:28;8.32;;;1.88;;
50759;SDS011;36733;48.442;-4.470;2022-07-29T08:31:53;10.17;;;2.67;;
50759;SDS011;36733;48.442;-4.470;2022-07-29T08:34:18;8.07;;;2.27;;
50759;SDS011;36733;48.442;-4.470;2022-07-29T08:36:44;6.53;;;1.60;;
50759;SDS011;36733;48.442;-4.470;2022-07-29T08:39:09;5.43;;;1.90;;
50759;SDS011;36733;48.442;-4.470;2022-07-29T08:41:35;5.90;;;1.85;;
50759;SDS011;36733;48.442;-4.470;2022-07-29T08:44:00;19.80;;;1.90;;
50759;SDS011;36733;48.442;-4.470;2022-07-29T08:46:26;7.45;;;1.73;;
50759;SDS011;36733;48.442;-4.470;2022-07-29T08:51:18;4.57;;;1.30;;
50759;SDS011;36733;48.442;-4.470;2022-07-29T08:53:45;4.85;;;1.65;;
50759;SDS011;36733;48.442;-4.470;2022-07-29T08:56:13;6.32;;;1.42;;
50759;SDS011;36733;48.442;-4.470;2022-07-29T08:58:39;8.05;;;1.55;;
50759;SDS011;36733;48.442;-4.470;2022-07-29T09:01:06;5.65;;;1.35;;
50759;SDS011;36733;48.442;-4.470;2022-07-29T09:05:59;5.00;;;1.20;;
50759;SDS011;36733;48.442;-4.470;2022-07-29T09:08:26;3.35;;;1.10;;
50759;SDS011;36733;48.442;-4.470;2022-07-29T09:10:53;3.03;;;1.25;;
50759;SDS011;36733;48.442;-4.470;2022-07-29T09:13:20;5.35;;;1.30;;
50759;SDS011;36733;48.442;-4.470;2022-07-29T09:18:12;3.00;;;1.23;;
50759;SDS011;36733;48.442;-4.470;2022-07-29T09:20:37;3.57;;;1.00;;
50759;SDS011;36733;48.442;-4.470;2022-07-29T09:23:22;6.05;;;1.52;;
50759;SDS011;36733;48.442;-4.470;2022-07-29T09:25:47;4.95;;;1.48;;
50759;SDS011;36733;48.442;-4.470;2022-07-29T09:28:14;3.67;;;1.10;;
50759;SDS011;36733;48.442;-4.470;2022-07-29T09:33:20;1.92;;;0.90;;
50759;SDS011;36733;48.442;-4.470;2022-07-29T09:35:46;2.47;;;1.13;;
50759;SDS011;36733;48.442;-4.470;2022-07-29T09:38:33;5.53;;;1.33;;
50759;SDS011;36733;48.442;-4.470;2022-07-29T09:40:59;6.68;;;1.30;;
50759;SDS011;36733;48.442;-4.470;2022-07-29T09:43:26;3.72;;;1.42;;
50759;SDS011;36733;48.442;-4.470;2022-07-29T09:45:52;2.70;;;1.13;;
50759;SDS011;36733;48.442;-4.470;2022-07-29T09:48:18;2.97;;;1.13;;
50759;SDS011;36733;48.442;-4.470;2022-07-29T09:50:47;3.85;;;1.27;;
50759;SDS011;36733;48.442;-4.470;2022-07-29T09:55:57;3.45;;;1.00;;
50759;SDS011;36733;48.442;-4.470;2022-07-29T09:58:23;3.05;;;1.30;;
50759;SDS011;36733;48.442;-4.470;2022-07-29T10:00:49;2.05;;;1.08;;
50759;SDS011;36733;48.442;-4.470;2022-07-29T10:03:15;2.28;;;1.30;;
50759;SDS011;36733;48.442;-4.470;2022-07-29T10:05:42;2.63;;;1.13;;
50759;SDS011;36733;48.442;-4.470;2022-07-29T10:08:08;1.63;;;0.90;;
50759;SDS011;36733;48.442;-4.470;2022-07-29T10:10:36;6.20;;;1.27;;
50759;SDS011;36733;48.442;-4.470;2022-07-29T10:13:04;3.03;;;1.42;;
50759;SDS011;36733;48.442;-4.470;2022-07-29T10:15:32;2.30;;;1.13;;
50759;SDS011;36733;48.442;-4.470;2022-07-29T10:17:58;4.03;;;1.20;;
50759;SDS011;36733;48.442;-4.470;2022-07-29T10:20:25;5.80;;;1.60;;
50759;SDS011;36733;48.442;-4.470;2022-07-29T10:22:51;4.90;;;1.63;;
50759;SDS011;36733;48.442;-4.470;2022-07-29T10:25:17;3.70;;;1.15;;
50759;SDS011;36733;48.442;-4.470;2022-07-29T10:27:44;5.63;;;1.60;;
50759;SDS011;36733;48.442;-4.470;2022-07-29T10:30:11;4.70;;;1.60;;
50759;SDS011;36733;48.442;-4.470;2022-07-29T10:46:24;3.28;;;1.20;;
50759;SDS011;36733;48.442;-4.470;2022-07-29T10:54:44;4.72;;;1.55;;
50759;SDS011;36733;48.442;-4.470;2022-07-29T10:59:38;5.03;;;1.60;;
50759;SDS011;36733;48.442;-4.470;2022-07-29T11:07:24;9.05;;;2.45;;
50759;SDS011;36733;48.442;-4.470;2022-07-29T11:15:06;13.20;;;2.43;;
50759;SDS011;36733;48.442;-4.470;2022-07-29T11:39:34;6.95;;;1.42;;
50759;SDS011;36733;48.442;-4.470;2022-07-29T11:47:22;4.68;;;1.33;;
50759;SDS011;36733;48.442;-4.470;2022-07-29T11:49:48;6.57;;;1.27;;
50759;SDS011;36733;48.442;-4.470;2022-07-29T11:52:16;2.38;;;1.27;;
50759;SDS011;36733;48.442;-4.470;2022-07-29T11:54:42;4.05;;;1.50;;
50759;SDS011;36733;48.442;-4.470;2022-07-29T11:59:40;2.88;;;1.17;;
50759;SDS011;36733;48.442;-4.470;2022-07-29T12:02:09;2.08;;;1.20;;
50759;SDS011;36733;48.442;-4.470;2022-07-29T12:07:27;4.20;;;1.17;;
50759;SDS011;36733;48.442;-4.470;2022-07-29T12:09:53;2.03;;;1.10;;
50759;SDS011;36733;48.442;-4.470;2022-07-29T12:12:19;6.22;;;1.30;;
50759;SDS011;36733;48.442;-4.470;2022-07-29T12:14:45;2.35;;;1.20;;
50759;SDS011;36733;48.442;-4.470;2022-07-29T12:17:27;1.98;;;1.00;;
50759;SDS011;36733;48.442;-4.470;2022-07-29T12:19:54;3.20;;;1.00;;
50759;SDS011;36733;48.442;-4.470;2022-07-29T12:22:30;2.28;;;1.10;;
50759;SDS011;36733;48.442;-4.470;2022-07-29T12:25:06;2.00;;;1.10;;
50759;SDS011;36733;48.442;-4.470;2022-07-29T12:27:33;2.33;;;1.10;;
50759;SDS011;36733;48.442;-4.470;2022-07-29T12:30:01;2.63;;;1.10;;
50759;SDS011;36733;48.442;-4.470;2022-07-29T12:32:33;4.68;;;1.20;;
50759;SDS011;36733;48.442;-4.470;2022-07-29T12:35:02;3.08;;;1.10;;
50759;SDS011;36733;48.442;-4.470;2022-07-29T12:37:33;2.55;;;1.15;;
50759;SDS011;36733;48.442;-4.470;2022-07-29T12:39:59;2.88;;;1.00;;
50759;SDS011;36733;48.442;-4.470;2022-07-29T12:42:25;5.90;;;1.23;;
50759;SDS011;36733;48.442;-4.470;2022-07-29T12:44:50;2.73;;;1.10;;
50759;SDS011;36733;48.442;-4.470;2022-07-29T12:47:17;4.20;;;1.27;;
50759;SDS011;36733;48.442;-4.470;2022-07-29T12:49:43;2.22;;;1.33;;
50759;SDS011;36733;48.442;-4.470;2022-07-29T12:54:50;5.78;;;1.30;;
50759;SDS011;36733;48.442;-4.470;2022-07-29T12:57:15;4.73;;;1.40;;
50759;SDS011;36733;48.442;-4.470;2022-07-29T12:59:41;5.97;;;1.40;;
50759;SDS011;36733;48.442;-4.470;2022-07-29T13:02:06;3.63;;;0.95;;
50759;SDS011;36733;48.442;-4.470;2022-07-29T13:04:32;7.13;;;1.35;;
50759;SDS011;36733;48.442;-4.470;2022-07-29T13:07:05;3.38;;;1.17;;
50759;SDS011;36733;48.442;-4.470;2022-07-29T13:09:41;3.45;;;1.17;;
50759;SDS011;36733;48.442;-4.470;2022-07-29T13:12:09;5.88;;;1.65;;
50759;SDS011;36733;48.442;-4.470;2022-07-29T13:14:40;11.00;;;2.85;;
50759;SDS011;36733;48.442;-4.470;2022-07-29T13:17:22;2.95;;;1.20;;
50759;SDS011;36733;48.442;-4.470;2022-07-29T13:20:03;9.43;;;1.35;;
50759;SDS011;36733;48.442;-4.470;2022-07-29T13:22:30;6.65;;;1.00;;
50759;SDS011;36733;48.442;-4.470;2022-07-29T13:24:57;4.93;;;1.20;;
50759;SDS011;36733;48.442;-4.470;2022-07-29T13:27:25;4.43;;;1.30;;
50759;SDS011;36733;48.442;-4.470;2022-07-29T13:29:51;5.60;;;1.60;;
50759;SDS011;36733;48.442;-4.470;2022-07-29T13:32:21;2.95;;;1.10;;
50759;SDS011;36733;48.442;-4.470;2022-07-29T13:34:46;3.92;;;1.48;;
50759;SDS011;36733;48.442;-4.470;2022-07-29T13:37:12;1.65;;;1.05;;
50759;SDS011;36733;48.442;-4.470;2022-07-29T13:39:37;4.38;;;1.20;;
50759;SDS011;36733;48.442;-4.470;2022-07-29T13:42:03;3.38;;;1.23;;
50759;SDS011;36733;48.442;-4.470;2022-07-29T13:44:29;3.67;;;1.20;;
50759;SDS011;36733;48.442;-4.470;2022-07-29T13:46:55;6.85;;;1.65;;
50759;SDS011;36733;48.442;-4.470;2022-07-29T13:49:20;6.60;;;1.70;;
50759;SDS011;36733;48.442;-4.470;2022-07-29T13:51:46;3.88;;;1.20;;
50759;SDS011;36733;48.442;-4.470;2022-07-29T13:54:13;5.78;;;1.40;;
50759;SDS011;36733;48.442;-4.470;2022-07-29T13:56:38;4.97;;;1.35;;
50759;SDS011;36733;48.442;-4.470;2022-07-29T13:59:04;8.57;;;1.42;;
50759;SDS011;36733;48.442;-4.470;2022-07-29T14:01:29;5.60;;;1.67;;
50759;SDS011;36733;48.442;-4.470;2022-07-29T14:06:20;4.07;;;1.85;;
50759;SDS011;36733;48.442;-4.470;2022-07-29T14:08:46;3.40;;;1.20;;
50759;SDS011;36733;48.442;-4.470;2022-07-29T14:11:11;4.38;;;1.13;;
50759;SDS011;36733;48.442;-4.470;2022-07-29T14:13:37;4.63;;;1.75;;
50759;SDS011;36733;48.442;-4.470;2022-07-29T14:16:02;2.92;;;1.40;;
50759;SDS011;36733;48.442;-4.470;2022-07-29T14:18:28;2.08;;;1.10;;
50759;SDS011;36733;48.442;-4.470;2022-07-29T14:20:53;8.48;;;1.15;;
50759;SDS011;36733;48.442;-4.470;2022-07-29T14:23:18;4.55;;;1.45;;
50759;SDS011;36733;48.442;-4.470;2022-07-29T14:25:44;3.58;;;1.20;;
50759;SDS011;36733;48.442;-4.470;2022-07-29T14:28:09;5.90;;;1.30;;
50759;SDS011;36733;48.442;-4.470;2022-07-29T14:30:35;4.05;;;1.20;;
50759;SDS011;36733;48.442;-4.470;2022-07-29T14:33:00;5.90;;;1.30;;
50759;SDS011;36733;48.442;-4.470;2022-07-29T14:35:26;8.93;;;1.27;;
50759;SDS011;36733;48.442;-4.470;2022-07-29T14:37:52;6.65;;;1.30;;
50759;SDS011;36733;48.442;-4.470;2022-07-29T14:40:17;2.55;;;1.15;;
50759;SDS011;36733;48.442;-4.470;2022-07-29T14:42:42;4.28;;;1.33;;
50759;SDS011;36733;48.442;-4.470;2022-07-29T14:45:09;6.43;;;1.17;;
50759;SDS011;36733;48.442;-4.470;2022-07-29T14:47:34;2.42;;;1.20;;
50759;SDS011;36733;48.442;-4.470;2022-07-29T14:50:00;7.63;;;1.25;;
50759;SDS011;36733;48.442;-4.470;2022-07-29T14:52:26;3.55;;;1.30;;
50759;SDS011;36733;48.442;-4.470;2022-07-29T14:54:51;5.32;;;1.38;;
50759;SDS011;36733;48.442;-4.470;2022-07-29T14:57:16;3.85;;;1.20;;
50759;SDS011;36733;48.442;-4.470;2022-07-29T14:59:42;3.80;;;1.02;;
50759;SDS011;36733;48.442;-4.470;2022-07-29T15:02:07;4.55;;;0.93;;
50759;SDS011;36733;48.442;-4.470;2022-07-29T15:04:33;2.72;;;0.80;;
50759;SDS011;36733;48.442;-4.470;2022-07-29T15:06:58;4.03;;;0.90;;
50759;SDS011;36733;48.442;-4.470;2022-07-29T15:09:24;2.85;;;1.00;;
50759;SDS011;36733;48.442;-4.470;2022-07-29T15:11:49;2.58;;;1.08;;
50759;SDS011;36733;48.442;-4.470;2022-07-29T15:14:14;3.65;;;1.20;;
50759;SDS011;36733;48.442;-4.470;2022-07-29T15:16:40;1.48;;;1.02;;
50759;SDS011;36733;48.442;-4.470;2022-07-29T15:19:07;3.92;;;1.23;;
50759;SDS011;36733;48.442;-4.470;2022-07-29T15:21:33;4.65;;;1.20;;
50759;SDS011;36733;48.442;-4.470;2022-07-29T15:23:58;2.60;;;1.13;;
50759;SDS011;36733;48.442;-4.470;2022-07-29T15:26:24;3.10;;;0.95;;
50759;SDS011;36733;48.442;-4.470;2022-07-29T15:28:49;4.13;;;1.10;;
50759;SDS011;36733;48.442;-4.470;2022-07-29T15:31:14;2.53;;;0.80;;
50759;SDS011;36733;48.442;-4.470;2022-07-29T15:33:40;3.47;;;0.98;;
50759;SDS011;36733;48.442;-4.470;2022-07-29T15:36:05;3.25;;;1.17;;
50759;SDS011;36733;48.442;-4.470;2022-07-29T15:38:31;2.13;;;0.95;;
50759;SDS011;36733;48.442;-4.470;2022-07-29T15:40:56;2.15;;;1.15;;
50759;SDS011;36733;48.442;-4.470;2022-07-29T15:43:22;2.63;;;0.90;;
50759;SDS011;36733;48.442;-4.470;2022-07-29T15:45:48;2.97;;;1.15;;
50759;SDS011;36733;48.442;-4.470;2022-07-29T15:48:32;1.50;;;0.93;;
50759;SDS011;36733;48.442;-4.470;2022-07-29T15:50:58;2.28;;;0.93;;
50759;SDS011;36733;48.442;-4.470;2022-07-29T15:53:25;4.13;;;0.93;;
50759;SDS011;36733;48.442;-4.470;2022-07-29T15:55:50;5.15;;;1.05;;
50759;SDS011;36733;48.442;-4.470;2022-07-29T15:58:16;4.03;;;1.20;;
50759;SDS011;36733;48.442;-4.470;2022-07-29T16:00:42;4.30;;;1.30;;
50759;SDS011;36733;48.442;-4.470;2022-07-29T16:03:07;2.90;;;1.00;;
50759;SDS011;36733;48.442;-4.470;2022-07-29T16:05:33;2.92;;;1.50;;
50759;SDS011;36733;48.442;-4.470;2022-07-29T16:07:58;2.97;;;1.02;;
50759;SDS011;36733;48.442;-4.470;2022-07-29T16:12:50;4.35;;;1.15;;
50759;SDS011;36733;48.442;-4.470;2022-07-29T16:15:15;3.05;;;1.15;;
50759;SDS011;36733;48.442;-4.470;2022-07-29T16:17:40;1.80;;;1.10;;
50759;SDS011;36733;48.442;-4.470;2022-07-29T16:20:06;5.43;;;1.35;;
50759;SDS011;36733;48.442;-4.470;2022-07-29T16:22:32;9.38;;;1.48;;